createdAt,value
2017-10-15T00:01:02.323Z,4.63
2017-10-15T00:03:30.549Z,5.07
2017-10-15T00:05:57.994Z,4.77
2017-10-15T00:08:25.424Z,4.20
2017-10-15T00:10:52.857Z,4.23
2017-10-15T00:13:21.079Z,5.30
2017-10-15T00:15:48.514Z,6.63
2017-10-15T00:18:15.958Z,4.93
2017-10-15T00:20:44.147Z,6.80
2017-10-15T00:23:11.605Z,5.17
2017-10-15T00:25:39.029Z,6.47
2017-10-15T00:28:16.177Z,6.07
2017-10-15T00:30:43.641Z,4.43
2017-10-15T00:33:11.185Z,4.80
2017-10-15T00:35:38.653Z,5.37
2017-10-15T00:38:06.108Z,4.67
2017-10-15T00:40:33.555Z,6.30
2017-10-15T00:43:00.992Z,5.80
2017-10-15T00:45:28.422Z,5.60
2017-10-15T00:47:55.865Z,5.70
2017-10-15T00:50:23.295Z,5.70
2017-10-15T00:52:50.748Z,5.70
2017-10-15T00:55:18.193Z,5.30
2017-10-15T00:57:45.669Z,4.60
2017-10-15T01:00:13.105Z,5.30
2017-10-15T01:02:40.528Z,5.67
2017-10-15T01:05:08.745Z,5.63
2017-10-15T01:07:36.209Z,4.23
2017-10-15T01:10:03.670Z,5.47
2017-10-15T01:12:31.093Z,6.03
2017-10-15T01:14:58.540Z,5.80
2017-10-15T01:17:26.760Z,5.60
2017-10-15T01:19:54.189Z,6.33
2017-10-15T01:22:21.629Z,5.20
2017-10-15T01:24:49.832Z,5.27
2017-10-15T01:27:17.276Z,4.67
2017-10-15T01:29:44.764Z,5.27
2017-10-15T01:32:12.221Z,5.43
2017-10-15T01:34:39.654Z,6.03
2017-10-15T01:37:07.080Z,5.47
2017-10-15T01:39:35.289Z,5.50
2017-10-15T01:42:02.723Z,6.37
2017-10-15T01:44:30.949Z,4.47
2017-10-15T01:46:58.390Z,5.40
2017-10-15T01:49:25.842Z,6.07
2017-10-15T01:51:53.261Z,6.27
2017-10-15T01:54:21.469Z,5.03
2017-10-15T01:56:48.957Z,6.50
2017-10-15T01:59:16.389Z,4.67
2017-10-15T02:01:43.954Z,6.37
2017-10-15T02:04:11.365Z,4.90
2017-10-15T02:06:39.570Z,5.60
2017-10-15T02:09:07.008Z,6.40
2017-10-15T02:11:35.203Z,6.10
2017-10-15T02:14:02.994Z,4.87
2017-10-15T02:16:30.424Z,5.30
2017-10-15T02:18:57.911Z,6.10
2017-10-15T02:21:25.357Z,6.30
2017-10-15T02:23:52.784Z,6.43
2017-10-15T02:26:20.234Z,8.00
2017-10-15T02:28:48.442Z,6.27
2017-10-15T02:31:15.900Z,5.53
2017-10-15T02:33:43.358Z,5.67
2017-10-15T02:36:10.790Z,4.90
2017-10-15T02:38:38.223Z,4.27
2017-10-15T02:41:05.657Z,4.90
2017-10-15T02:43:34.625Z,3.17
2017-10-15T02:46:02.076Z,3.73
2017-10-15T02:48:29.518Z,3.90
2017-10-15T02:50:56.946Z,3.63
2017-10-15T02:53:25.173Z,3.90
2017-10-15T02:55:52.605Z,6.07
2017-10-15T02:58:20.398Z,6.87
2017-10-15T03:00:47.829Z,6.27
2017-10-15T03:03:15.260Z,6.63
2017-10-15T03:05:43.475Z,6.23
2017-10-15T03:08:10.956Z,7.70
2017-10-15T03:10:38.389Z,7.30
2017-10-15T03:13:05.828Z,6.70
2017-10-15T03:15:33.624Z,6.40
2017-10-15T03:18:01.170Z,5.60
2017-10-15T03:20:28.577Z,6.20
2017-10-15T03:22:56.033Z,5.63
2017-10-15T03:25:23.556Z,5.00
2017-10-15T03:27:51.025Z,4.47
2017-10-15T03:30:18.478Z,5.60
2017-10-15T03:32:46.233Z,5.50
2017-10-15T03:35:13.672Z,3.97
2017-10-15T03:37:41.153Z,5.60
2017-10-15T03:40:08.604Z,4.50
2017-10-15T03:42:36.042Z,4.03
2017-10-15T03:45:03.480Z,4.57
2017-10-15T03:47:30.982Z,3.30
2017-10-15T03:49:58.413Z,4.00
2017-10-15T03:52:25.902Z,2.57
2017-10-15T03:54:54.185Z,3.30
2017-10-15T03:57:21.637Z,3.70
2017-10-15T03:59:49.094Z,4.33
2017-10-15T04:02:16.533Z,4.87
2017-10-15T04:04:43.978Z,4.53
2017-10-15T04:07:11.421Z,4.70
2017-10-15T04:09:39.616Z,5.20
2017-10-15T04:12:07.042Z,6.53
2017-10-15T04:14:35.256Z,5.57
2017-10-15T04:17:02.725Z,4.20
2017-10-15T04:19:30.485Z,4.63
2017-10-15T04:21:57.925Z,5.20
2017-10-15T04:24:25.367Z,4.70
2017-10-15T04:26:52.820Z,6.43
2017-10-15T04:29:22.077Z,5.83
2017-10-15T04:31:49.520Z,5.77
2017-10-15T04:34:16.945Z,6.13
2017-10-15T04:36:44.398Z,6.30
2017-10-15T04:39:11.833Z,5.37
2017-10-15T04:41:40.054Z,5.37
2017-10-15T04:44:07.485Z,5.10
2017-10-15T04:46:34.921Z,4.60
2017-10-15T04:49:02.373Z,5.67
2017-10-15T04:51:29.804Z,7.23
2017-10-15T04:53:57.241Z,6.07
2017-10-15T04:56:24.698Z,6.33
2017-10-15T04:58:52.165Z,7.13
2017-10-15T05:01:19.603Z,5.90
2017-10-15T05:03:47.049Z,7.87
2017-10-15T05:06:14.476Z,6.43
2017-10-15T05:08:42.677Z,7.60
2017-10-15T05:11:10.135Z,5.27
2017-10-15T05:13:37.569Z,7.10
2017-10-15T05:16:05.785Z,6.37
2017-10-15T05:18:33.215Z,5.73
2017-10-15T05:21:01.418Z,5.80
2017-10-15T05:23:28.846Z,6.20
2017-10-15T05:25:56.328Z,5.13
2017-10-15T05:28:23.742Z,6.97
2017-10-15T05:30:51.985Z,4.47
2017-10-15T05:33:19.424Z,6.47
2017-10-15T05:35:46.868Z,5.60
2017-10-15T05:38:14.301Z,6.07
2017-10-15T05:40:42.502Z,5.73
2017-10-15T05:43:09.938Z,4.77
2017-10-15T05:45:38.159Z,5.93
2017-10-15T05:48:05.585Z,4.47
2017-10-15T05:50:33.080Z,6.50
2017-10-15T05:53:00.510Z,5.50
2017-10-15T05:55:27.985Z,7.33
2017-10-15T05:57:55.434Z,5.17
2017-10-15T06:00:22.886Z,7.10
2017-10-15T06:02:50.368Z,5.50
2017-10-15T06:05:17.917Z,6.60
2017-10-15T06:07:45.381Z,5.20
2017-10-15T06:10:12.820Z,5.30
2017-10-15T06:12:40.280Z,6.27
2017-10-15T06:15:07.710Z,5.50
2017-10-15T06:17:35.917Z,7.03
2017-10-15T06:20:03.357Z,5.83
2017-10-15T06:22:30.845Z,6.00
2017-10-15T06:24:58.302Z,6.80
2017-10-15T06:27:25.745Z,5.03
2017-10-15T06:29:53.193Z,6.13
2017-10-15T06:32:20.629Z,5.83
2017-10-15T06:34:48.078Z,3.80
2017-10-15T06:37:16.391Z,6.60
2017-10-15T06:39:43.858Z,5.40
2017-10-15T06:42:11.288Z,6.30
2017-10-15T06:44:38.769Z,5.80
2017-10-15T06:47:06.210Z,5.20
2017-10-15T06:49:33.637Z,4.00
2017-10-15T06:52:01.865Z,6.20
2017-10-15T06:54:29.294Z,5.73
2017-10-15T06:56:56.738Z,4.43
2017-10-15T06:59:24.177Z,6.83
2017-10-15T07:01:52.416Z,4.90
2017-10-15T07:04:19.898Z,4.77
2017-10-15T07:06:48.227Z,5.13
2017-10-15T07:09:15.638Z,4.67
2017-10-15T07:11:43.846Z,4.90
2017-10-15T07:14:11.447Z,5.63
2017-10-15T07:16:38.876Z,5.43
2017-10-15T07:19:06.325Z,4.67
2017-10-15T07:21:33.748Z,5.93
2017-10-15T07:24:01.988Z,4.70
2017-10-15T07:26:29.434Z,5.20
2017-10-15T07:28:56.894Z,4.53
2017-10-15T07:31:24.661Z,4.90
2017-10-15T07:33:52.105Z,4.70
2017-10-15T07:36:19.536Z,5.23
2017-10-15T07:38:46.977Z,3.77
2017-10-15T07:41:15.177Z,4.90
2017-10-15T07:43:42.663Z,4.67
2017-10-15T07:46:10.126Z,4.50
2017-10-15T07:48:37.571Z,6.30
2017-10-15T07:51:05.021Z,4.97
2017-10-15T07:53:32.461Z,4.93
2017-10-15T07:55:59.900Z,4.67
2017-10-15T07:58:28.101Z,3.10
2017-10-15T08:00:55.544Z,3.30
2017-10-15T08:03:23.850Z,6.13
2017-10-15T08:05:51.289Z,5.00
2017-10-15T08:08:18.885Z,5.33
2017-10-15T08:10:46.330Z,5.80
2017-10-15T08:13:13.768Z,5.80
2017-10-15T08:15:41.201Z,5.47
2017-10-15T08:18:09.396Z,5.97
2017-10-15T08:20:36.853Z,5.87
2017-10-15T08:23:04.293Z,7.40
2017-10-15T08:25:32.504Z,6.33
2017-10-15T08:27:59.940Z,5.20
2017-10-15T08:30:27.376Z,5.37
2017-10-15T08:32:55.617Z,4.93
2017-10-15T08:35:23.057Z,7.17
2017-10-15T08:37:50.505Z,6.27
2017-10-15T08:40:17.954Z,8.07
2017-10-15T08:42:45.433Z,6.83
2017-10-15T08:45:12.876Z,7.00
2017-10-15T08:47:40.665Z,6.30
2017-10-15T08:50:08.266Z,5.30
2017-10-15T08:52:36.478Z,5.37
2017-10-15T08:55:03.937Z,6.90
2017-10-15T08:57:31.380Z,6.33
2017-10-15T08:59:58.878Z,7.00
2017-10-15T09:02:27.257Z,7.23
2017-10-15T09:04:54.712Z,6.30
2017-10-15T09:07:22.150Z,6.90
2017-10-15T09:09:49.704Z,7.37
2017-10-15T09:12:17.148Z,7.57
2017-10-15T09:14:44.644Z,6.60
2017-10-15T09:17:12.089Z,6.63
2017-10-15T09:19:39.556Z,6.77
2017-10-15T09:22:07.010Z,7.33
2017-10-15T09:24:34.556Z,6.60
2017-10-15T09:27:01.974Z,6.80
2017-10-15T09:29:30.185Z,5.57
2017-10-15T09:31:57.665Z,7.13
2017-10-15T09:34:25.239Z,7.40
2017-10-15T09:36:52.688Z,7.77
2017-10-15T09:39:20.157Z,6.60
2017-10-15T09:41:48.370Z,8.00
2017-10-15T09:44:15.809Z,8.43
2017-10-15T09:46:44.029Z,9.07
2017-10-15T09:49:11.805Z,8.57
2017-10-15T09:51:39.253Z,9.70
2017-10-15T09:54:06.689Z,8.97
2017-10-15T09:56:34.145Z,11.17
2017-10-15T09:59:01.577Z,8.73
2017-10-15T10:01:29.920Z,10.00
2017-10-15T10:03:57.369Z,10.60
2017-10-15T10:06:24.824Z,10.33
2017-10-15T10:08:52.269Z,10.27
2017-10-15T10:11:19.715Z,10.10
2017-10-15T10:13:47.174Z,10.03
2017-10-15T10:16:14.626Z,10.77
2017-10-15T10:18:42.117Z,11.13
2017-10-15T10:21:09.586Z,9.77
2017-10-15T10:23:37.037Z,11.90
2017-10-15T10:26:04.511Z,11.77
2017-10-15T10:28:32.761Z,11.30
2017-10-15T10:31:00.218Z,11.73
2017-10-15T10:33:27.674Z,9.23
2017-10-15T10:35:55.114Z,11.40
2017-10-15T10:38:22.589Z,11.53
2017-10-15T10:40:50.137Z,10.57
2017-10-15T10:43:17.621Z,9.83
2017-10-15T10:45:45.057Z,9.77
2017-10-15T10:48:12.512Z,10.73
2017-10-15T10:50:39.951Z,10.47
2017-10-15T10:53:07.445Z,11.33
2017-10-15T10:55:34.894Z,11.10
2017-10-15T10:58:02.336Z,13.00
2017-10-15T11:00:29.819Z,11.67
2017-10-15T11:02:57.265Z,10.70
2017-10-15T11:05:24.738Z,10.83
2017-10-15T11:07:52.187Z,11.83
2017-10-15T11:10:19.632Z,11.87
2017-10-15T11:12:47.093Z,10.30
2017-10-15T11:15:14.530Z,12.43
2017-10-15T11:17:42.009Z,13.50
2017-10-15T11:20:09.458Z,12.67
2017-10-15T11:22:36.937Z,13.50
2017-10-15T11:25:04.489Z,14.10
2017-10-15T11:27:31.929Z,12.50
2017-10-15T11:29:59.710Z,11.30
2017-10-15T11:32:27.174Z,12.27
2017-10-15T11:34:54.615Z,12.40
2017-10-15T11:37:22.065Z,10.00
2017-10-15T11:39:49.541Z,12.53
2017-10-15T11:42:17.011Z,12.77
2017-10-15T11:44:44.445Z,14.13
2017-10-15T11:47:11.913Z,12.60
2017-10-15T11:49:39.469Z,12.37
2017-10-15T11:52:06.917Z,13.67
2017-10-15T11:54:34.386Z,13.17
2017-10-15T11:57:01.834Z,11.80
2017-10-15T11:59:29.405Z,13.50
2017-10-15T12:01:56.945Z,13.80
2017-10-15T12:04:24.370Z,12.50
2017-10-15T12:06:52.593Z,11.00
2017-10-15T12:09:20.038Z,12.27
2017-10-15T12:11:47.598Z,13.23
2017-10-15T12:14:15.074Z,13.00
2017-10-15T12:16:42.534Z,12.60
2017-10-15T12:19:09.978Z,12.50
2017-10-15T12:21:37.415Z,13.20
2017-10-15T12:24:04.861Z,11.67
2017-10-15T12:26:32.304Z,12.90
2017-10-15T12:29:00.534Z,14.87
2017-10-15T12:31:28.078Z,12.53
2017-10-15T12:33:55.545Z,12.30
2017-10-15T12:36:22.986Z,11.33
2017-10-15T12:38:50.435Z,14.00
2017-10-15T12:41:17.897Z,12.40
2017-10-15T12:43:45.342Z,11.50
2017-10-15T12:46:13.145Z,10.07
2017-10-15T12:48:40.586Z,13.40
2017-10-15T12:51:08.022Z,12.53
2017-10-15T12:53:35.513Z,13.63
2017-10-15T12:56:02.961Z,12.73
2017-10-15T12:58:30.419Z,12.97
2017-10-15T13:00:57.886Z,12.47
2017-10-15T13:03:25.341Z,12.17
2017-10-15T13:05:52.789Z,12.70
2017-10-15T13:08:20.237Z,11.73
2017-10-15T13:10:47.682Z,12.70
2017-10-15T13:13:15.118Z,13.80
2017-10-15T13:15:43.338Z,12.50
2017-10-15T13:18:10.815Z,13.37
2017-10-15T13:20:38.264Z,12.80
2017-10-15T13:23:05.713Z,16.30
2017-10-15T13:25:33.262Z,13.73
2017-10-15T13:28:00.683Z,13.77
2017-10-15T13:30:28.908Z,12.97
2017-10-15T13:32:56.376Z,14.40
2017-10-15T13:35:23.819Z,12.90
2017-10-15T13:37:51.278Z,12.20
2017-10-15T13:40:18.830Z,12.87
2017-10-15T13:42:46.613Z,11.87
2017-10-15T13:45:14.071Z,11.43
2017-10-15T13:47:41.547Z,11.77
2017-10-15T13:50:08.981Z,11.97
2017-10-15T13:52:36.524Z,11.40
2017-10-15T13:55:03.958Z,10.87
2017-10-15T13:57:31.397Z,13.33
2017-10-15T13:59:59.622Z,11.70
2017-10-15T14:02:27.106Z,12.93
2017-10-15T14:04:56.075Z,10.87
2017-10-15T14:07:23.600Z,12.00
2017-10-15T14:09:52.842Z,10.13
2017-10-15T14:12:20.399Z,10.97
2017-10-15T14:14:47.984Z,11.70
2017-10-15T14:17:17.131Z,10.97
2017-10-15T14:19:46.692Z,12.17
2017-10-15T14:22:14.418Z,11.00
2017-10-15T14:24:42.068Z,11.60
2017-10-15T14:27:09.899Z,12.80
2017-10-15T14:29:37.341Z,11.93
2017-10-15T14:32:07.328Z,11.53
2017-10-15T14:34:34.777Z,12.30
2017-10-15T14:37:02.232Z,11.50
2017-10-15T14:39:29.713Z,11.30
2017-10-15T14:41:57.165Z,13.30
2017-10-15T14:44:24.713Z,12.63
2017-10-15T14:46:52.181Z,11.37
2017-10-15T14:49:19.619Z,12.10
2017-10-15T14:51:47.060Z,10.43
2017-10-15T14:54:14.552Z,11.37
2017-10-15T14:56:42.014Z,10.00
2017-10-15T14:59:09.505Z,12.00
2017-10-15T15:01:37.717Z,11.70
2017-10-15T15:04:05.166Z,11.70
2017-10-15T15:06:32.618Z,12.37
2017-10-15T15:09:00.058Z,12.13
2017-10-15T15:11:28.267Z,11.87
2017-10-15T15:13:55.716Z,11.63
2017-10-15T15:16:23.149Z,11.87
2017-10-15T15:18:51.369Z,11.80
2017-10-15T15:21:18.804Z,12.57
2017-10-15T15:23:46.258Z,14.30
2017-10-15T15:26:13.692Z,12.00
2017-10-15T15:28:41.914Z,13.13
2017-10-15T15:31:09.362Z,12.70
2017-10-15T15:33:36.837Z,12.00
2017-10-15T15:36:04.292Z,12.07
2017-10-15T15:38:31.756Z,11.73
2017-10-15T15:40:59.209Z,13.00
2017-10-15T15:43:26.664Z,12.70
2017-10-15T15:45:54.119Z,12.77
2017-10-15T15:48:21.569Z,12.67
2017-10-15T15:50:49.028Z,12.87
2017-10-15T15:53:16.489Z,12.10
2017-10-15T15:55:43.933Z,12.60
2017-10-15T15:58:11.391Z,13.30
2017-10-15T16:00:38.837Z,11.23
2017-10-15T16:03:06.293Z,12.50
2017-10-15T16:05:33.729Z,11.70
2017-10-15T16:08:01.965Z,13.23
2017-10-15T16:10:29.408Z,11.57
2017-10-15T16:12:56.864Z,11.47
2017-10-15T16:15:24.305Z,10.93
2017-10-15T16:17:51.745Z,10.93
2017-10-15T16:20:20.272Z,12.13
2017-10-15T16:22:47.692Z,11.20
2017-10-15T16:25:15.133Z,12.20
2017-10-15T16:27:43.358Z,10.90
2017-10-15T16:30:10.805Z,12.03
2017-10-15T16:32:38.263Z,11.40
2017-10-15T16:35:05.702Z,10.77
2017-10-15T16:37:33.144Z,9.77
2017-10-15T16:40:01.358Z,11.20
2017-10-15T16:42:28.798Z,12.73
2017-10-15T16:44:56.269Z,11.37
2017-10-15T16:47:23.701Z,13.53
2017-10-15T16:49:51.158Z,11.87
2017-10-15T16:52:18.593Z,13.10
2017-10-15T16:54:46.805Z,14.50
2017-10-15T16:57:14.266Z,13.30
2017-10-15T16:59:41.711Z,13.07
2017-10-15T17:02:09.161Z,12.00
2017-10-15T17:04:36.602Z,13.50
2017-10-15T17:07:05.082Z,14.00
2017-10-15T17:09:33.503Z,11.73
2017-10-15T17:12:00.925Z,13.10
2017-10-15T17:14:29.145Z,12.67
2017-10-15T17:16:56.591Z,12.47
2017-10-15T17:19:24.047Z,11.60
2017-10-15T17:21:51.508Z,15.33
2017-10-15T17:24:18.978Z,16.53
2017-10-15T17:26:46.423Z,17.60
2017-10-15T17:29:13.870Z,15.07
2017-10-15T17:31:41.331Z,19.13
2017-10-15T17:34:08.761Z,17.97
2017-10-15T17:36:37.941Z,17.23
2017-10-15T17:39:05.474Z,17.00
2017-10-15T17:41:32.918Z,14.67
2017-10-15T17:44:00.379Z,14.67
2017-10-15T17:46:27.837Z,15.27
2017-10-15T17:48:55.297Z,16.07
2017-10-15T17:51:22.881Z,15.67
2017-10-15T17:53:50.340Z,14.20
2017-10-15T17:56:17.786Z,15.90
2017-10-15T17:58:45.226Z,16.93
2017-10-15T18:01:12.766Z,15.20
2017-10-15T18:03:40.186Z,16.47
2017-10-15T18:06:08.413Z,15.43
2017-10-15T18:08:35.865Z,15.07
2017-10-15T18:11:03.318Z,17.73
2017-10-15T18:13:30.781Z,16.37
2017-10-15T18:15:58.240Z,17.23
2017-10-15T18:18:25.670Z,15.07
2017-10-15T18:20:53.114Z,17.90
2017-10-15T18:23:21.330Z,16.10
2017-10-15T18:25:48.876Z,18.93
2017-10-15T18:28:16.298Z,17.80
2017-10-15T18:30:44.525Z,17.33
2017-10-15T18:33:11.973Z,16.47
2017-10-15T18:35:39.429Z,14.20
2017-10-15T18:38:06.878Z,13.87
2017-10-15T18:40:34.343Z,16.70
2017-10-15T18:43:01.766Z,14.30
2017-10-15T18:45:29.985Z,15.60
2017-10-15T18:47:57.435Z,13.30
2017-10-15T18:50:24.883Z,15.67
2017-10-15T18:52:52.346Z,15.07
2017-10-15T18:55:19.783Z,13.97
2017-10-15T18:57:47.979Z,15.50
2017-10-15T19:00:15.441Z,15.90
2017-10-15T19:02:42.891Z,15.73
2017-10-15T19:05:10.348Z,14.33
2017-10-15T19:07:37.775Z,16.63
2017-10-15T19:10:06.087Z,16.60
2017-10-15T19:12:33.530Z,17.57
2017-10-15T19:15:00.977Z,17.73
2017-10-15T19:17:28.431Z,16.63
2017-10-15T19:19:56.641Z,17.20
2017-10-15T19:22:24.194Z,15.40
2017-10-15T19:24:51.643Z,13.23
2017-10-15T19:27:19.105Z,15.07
2017-10-15T19:29:46.563Z,14.43
2017-10-15T19:32:14.002Z,15.10
2017-10-15T19:34:41.442Z,20.43
2017-10-15T19:37:09.664Z,15.57
2017-10-15T19:39:37.110Z,15.13
2017-10-15T19:42:04.569Z,15.37
2017-10-15T19:44:32.193Z,11.03
2017-10-15T19:47:01.250Z,12.30
2017-10-15T19:49:28.737Z,14.00
2017-10-15T19:51:56.171Z,14.60
2017-10-15T19:54:23.632Z,12.67
2017-10-15T19:56:52.822Z,12.43
2017-10-15T19:59:20.269Z,11.40
2017-10-15T20:01:47.708Z,11.67
2017-10-15T20:04:15.181Z,11.10
2017-10-15T20:06:42.637Z,11.77
2017-10-15T20:09:10.081Z,12.80
2017-10-15T20:11:37.553Z,12.23
2017-10-15T20:14:05.009Z,14.13
2017-10-15T20:16:32.470Z,10.87
2017-10-15T20:18:59.925Z,11.00
2017-10-15T20:21:27.380Z,12.20
2017-10-15T20:23:54.837Z,12.07
2017-10-15T20:26:22.300Z,10.57
2017-10-15T20:28:49.764Z,12.57
2017-10-15T20:31:17.205Z,12.27
2017-10-15T20:33:44.657Z,11.60
2017-10-15T20:36:12.147Z,13.37
2017-10-15T20:38:39.606Z,12.27
2017-10-15T20:41:07.050Z,13.97
2017-10-15T20:43:34.493Z,12.00
2017-10-15T20:46:01.941Z,14.00
2017-10-15T20:48:29.414Z,10.10
2017-10-15T20:50:56.874Z,10.00
2017-10-15T20:53:24.333Z,12.47
2017-10-15T20:55:51.788Z,11.03
2017-10-15T20:58:19.236Z,12.47
2017-10-15T21:00:46.685Z,14.07
2017-10-15T21:03:14.139Z,11.53
2017-10-15T21:05:41.572Z,14.90
2017-10-15T21:08:09.789Z,12.73
2017-10-15T21:10:37.233Z,11.57
2017-10-15T21:13:04.694Z,10.17
2017-10-15T21:15:32.153Z,10.23
2017-10-15T21:17:59.741Z,11.97
2017-10-15T21:20:27.173Z,12.40
2017-10-15T21:22:54.615Z,9.67
2017-10-15T21:25:22.107Z,11.10
2017-10-15T21:27:49.566Z,10.87
2017-10-15T21:30:17.025Z,10.13
2017-10-15T21:32:44.485Z,9.63
2017-10-15T21:35:12.037Z,8.93
2017-10-15T21:37:39.479Z,8.50
2017-10-15T21:40:06.930Z,9.10
2017-10-15T21:42:34.492Z,9.03
2017-10-15T21:45:01.957Z,9.30
2017-10-15T21:47:29.417Z,10.57
2017-10-15T21:49:56.877Z,8.53
2017-10-15T21:52:24.349Z,8.70
2017-10-15T21:54:51.779Z,9.57
2017-10-15T21:57:19.236Z,9.20
2017-10-15T21:59:46.670Z,7.27
2017-10-15T22:02:14.465Z,7.73
2017-10-15T22:04:41.905Z,8.23
2017-10-15T22:07:09.337Z,9.90
2017-10-15T22:09:37.572Z,8.33
2017-10-15T22:12:05.010Z,7.70
2017-10-15T22:14:32.461Z,9.20
2017-10-15T22:16:59.904Z,8.77
2017-10-15T22:19:27.388Z,6.40
2017-10-15T22:22:00.433Z,6.40
2017-10-15T22:24:27.933Z,6.80
2017-10-15T22:26:55.800Z,6.80
2017-10-15T22:29:23.374Z,7.17
2017-10-15T22:31:50.825Z,5.23
2017-10-15T22:34:18.281Z,6.60
2017-10-15T22:36:45.729Z,8.30
2017-10-15T22:39:13.196Z,7.70
2017-10-15T22:41:40.653Z,6.13
2017-10-15T22:44:08.093Z,6.40
2017-10-15T22:46:35.581Z,10.60
2017-10-15T22:49:03.014Z,7.40
2017-10-15T22:51:30.471Z,7.30
2017-10-15T22:53:57.940Z,9.73
2017-10-15T22:56:25.381Z,7.80
2017-10-15T22:58:52.825Z,6.70
2017-10-15T23:01:20.257Z,7.23
2017-10-15T23:03:48.786Z,7.53
2017-10-15T23:06:16.224Z,7.27
2017-10-15T23:08:43.657Z,7.77
2017-10-15T23:11:11.880Z,6.27
2017-10-15T23:13:39.325Z,6.20
2017-10-15T23:16:06.774Z,7.70
2017-10-15T23:18:34.229Z,8.67
2017-10-15T23:21:01.677Z,7.10
2017-10-15T23:23:29.108Z,5.53
2017-10-15T23:25:57.427Z,6.47
2017-10-15T23:28:24.857Z,6.37
2017-10-15T23:30:52.360Z,5.90
2017-10-15T23:33:19.820Z,6.80
2017-10-15T23:35:47.375Z,7.10
2017-10-15T23:38:14.805Z,6.87
2017-10-15T23:40:42.229Z,4.90
2017-10-15T23:43:09.674Z,6.37
2017-10-15T23:45:37.205Z,5.80
2017-10-15T23:48:04.750Z,4.30
2017-10-15T23:50:32.188Z,4.60
2017-10-15T23:52:59.677Z,6.20
2017-10-15T23:55:27.142Z,3.63
2017-10-15T23:57:54.581Z,5.73
